createdAt,value
2017-12-28T00:04:49.982Z,84.1
2017-12-28T00:15:43.569Z,84.0
2017-12-28T00:25:57.189Z,83.9
2017-12-28T00:36:11.569Z,84.0
2017-12-28T00:46:24.760Z,83.8
2017-12-28T00:56:38.295Z,83.7
2017-12-28T01:06:52.369Z,83.7
2017-12-28T01:17:05.736Z,83.7
2017-12-28T01:27:19.787Z,83.7
2017-12-28T01:37:33.042Z,83.8
2017-12-28T01:47:46.208Z,83.8
2017-12-28T01:57:59.671Z,83.8
2017-12-28T02:08:13.647Z,83.9
2017-12-28T02:18:27.084Z,83.8
2017-12-28T02:28:40.418Z,83.4
2017-12-28T02:38:53.480Z,83.1
2017-12-28T02:49:07.128Z,83.0
2017-12-28T02:59:20.934Z,83.0
2017-12-28T03:10:29.936Z,82.9
2017-12-28T03:20:43.865Z,83.1
2017-12-28T03:30:56.872Z,82.9
2017-12-28T03:51:26.845Z,83.2
2017-12-28T04:01:39.910Z,83.3
2017-12-28T04:11:53.186Z,83.3
2017-12-28T04:22:28.219Z,83.3
2017-12-28T04:32:44.010Z,83.4
2017-12-28T04:42:57.287Z,83.3
2017-12-28T04:53:10.462Z,83.3
2017-12-28T05:03:25.220Z,83.4
2017-12-28T05:13:39.123Z,83.6
2017-12-28T05:24:48.580Z,83.6
2017-12-28T05:35:02.518Z,83.5
2017-12-28T05:45:15.889Z,83.6
2017-12-28T05:55:29.386Z,83.6
2017-12-28T06:05:43.425Z,83.7
2017-12-28T06:15:56.680Z,83.4
2017-12-28T06:26:10.333Z,83.1
2017-12-28T06:37:00.624Z,83.1
2017-12-28T06:47:15.052Z,83.0
2017-12-28T06:58:01.934Z,83.1
2017-12-28T07:08:33.539Z,83.1
2017-12-28T07:19:18.922Z,83.1
2017-12-28T07:30:32.828Z,83.1
2017-12-28T07:40:46.629Z,83.1
2017-12-28T07:50:59.876Z,82.9
2017-12-28T08:01:14.646Z,83.1
2017-12-28T08:12:03.170Z,83.1
2017-12-28T08:22:16.326Z,83.2
2017-12-28T08:32:30.190Z,83.4
2017-12-28T08:42:42.355Z,83.6
2017-12-28T08:52:56.181Z,83.5
2017-12-28T09:03:13.465Z,84.0
2017-12-28T09:13:26.916Z,84.8
2017-12-28T09:23:41.211Z,85.2
2017-12-28T09:33:55.231Z,84.9
2017-12-28T09:44:30.373Z,84.6
2017-12-28T09:55:15.076Z,84.2
2017-12-28T10:06:34.419Z,83.9
2017-12-28T10:17:09.387Z,83.9
2017-12-28T10:27:23.248Z,83.8
2017-12-28T10:37:36.560Z,83.4
2017-12-28T10:47:50.622Z,83.4
2017-12-28T10:58:04.902Z,83.2
2017-12-28T11:08:18.516Z,83.2
2017-12-28T11:18:32.817Z,83.2
2017-12-28T11:29:16.658Z,83.4
2017-12-28T11:39:30.278Z,84.3
2017-12-28T11:50:15.902Z,84.1
2017-12-28T12:00:30.495Z,84.0
2017-12-28T12:11:19.005Z,84.4
2017-12-28T12:21:33.426Z,84.0
2017-12-28T12:31:46.756Z,83.3
2017-12-28T12:42:18.430Z,82.5
2017-12-28T12:52:32.504Z,83.2
2017-12-28T13:02:46.586Z,82.4
2017-12-28T13:13:35.937Z,82.0
2017-12-28T13:24:21.924Z,81.4
2017-12-28T13:34:36.602Z,81.6
2017-12-28T13:45:01.876Z,81.0
2017-12-28T13:55:21.484Z,81.1
2017-12-28T14:05:40.849Z,81.2
2017-12-28T14:15:55.233Z,81.2
2017-12-28T14:26:40.946Z,81.2
2017-12-28T14:47:25.415Z,80.7
2017-12-28T15:08:54.515Z,80.6
2017-12-28T15:19:51.103Z,80.3
2017-12-28T15:30:35.772Z,80.2
2017-12-28T15:41:24.043Z,79.9
2017-12-28T15:52:09.433Z,80.3
2017-12-28T16:02:23.028Z,80.4
2017-12-28T16:13:05.970Z,79.9
2017-12-28T16:23:35.867Z,80.3
2017-12-28T16:34:23.126Z,80.6
2017-12-28T16:45:08.710Z,80.1
2017-12-28T16:55:32.533Z,80.5
2017-12-28T17:05:46.667Z,80.7
2017-12-28T17:16:00.150Z,80.8
2017-12-28T17:26:34.922Z,80.6
2017-12-28T17:36:49.512Z,80.6
2017-12-28T17:47:37.054Z,80.7
2017-12-28T17:57:51.846Z,80.9
2017-12-28T18:08:06.090Z,80.8
2017-12-28T18:18:20.016Z,80.9
2017-12-28T18:28:33.565Z,80.8
2017-12-28T18:39:48.116Z,81.0
2017-12-28T18:50:03.291Z,81.0
2017-12-28T19:00:33.708Z,81.0
2017-12-28T19:11:26.993Z,80.7
2017-12-28T19:21:49.835Z,80.9
2017-12-28T19:32:22.846Z,81.1
2017-12-28T19:43:08.426Z,81.2
2017-12-28T19:54:38.588Z,81.3
2017-12-28T20:04:52.386Z,81.2
2017-12-28T20:28:56.343Z,81.4
2017-12-28T20:40:18.070Z,81.1
2017-12-28T20:51:02.811Z,80.8
2017-12-28T21:01:17.380Z,80.7
2017-12-28T21:12:04.389Z,80.6
2017-12-28T21:22:19.721Z,80.6
2017-12-28T21:32:50.549Z,80.8
2017-12-28T21:43:01.836Z,80.9
2017-12-28T21:53:16.800Z,81.2
2017-12-28T22:04:52.691Z,81.6
2017-12-28T22:15:09.201Z,81.9
2017-12-28T22:25:24.041Z,81.9
2017-12-28T22:36:09.668Z,81.9
2017-12-28T22:46:23.629Z,82.1
2017-12-28T22:56:36.989Z,82.1
2017-12-28T23:07:58.116Z,82.2
2017-12-28T23:18:11.697Z,82.2
2017-12-28T23:28:28.094Z,82.4
2017-12-28T23:39:03.420Z,82.6
2017-12-28T23:49:28.686Z,82.5
2017-12-28T23:59:42.492Z,82.6
